sensor_id;sensor_type;location;lat;lon;timestamp;P1;durP1;ratioP1;P2;durP2;ratioP2
22468;SDS011;11401;50.792;4.352;2023-04-15T00:01:06;3.25;;;2.63;;
22468;SDS011;11401;50.792;4.352;2023-04-15T00:03:33;2.55;;;2.35;;
22468;SDS011;11401;50.792;4.352;2023-04-15T00:06:02;3.00;;;2.28;;
22468;SDS011;11401;50.792;4.352;2023-04-15T00:08:29;3.38;;;2.47;;
22468;SDS011;11401;50.792;4.352;2023-04-15T00:10:56;3.83;;;2.42;;
22468;SDS011;11401;50.792;4.352;2023-04-15T00:13:28;3.97;;;2.53;;
22468;SDS011;11401;50.792;4.352;2023-04-15T00:15:55;4.15;;;2.78;;
22468;SDS011;11401;50.792;4.352;2023-04-15T00:18:23;3.50;;;2.38;;
22468;SDS011;11401;50.792;4.352;2023-04-15T00:20:50;3.50;;;2.55;;
22468;SDS011;11401;50.792;4.352;2023-04-15T00:23:17;2.63;;;2.05;;
22468;SDS011;11401;50.792;4.352;2023-04-15T00:25:45;2.83;;;2.30;;
22468;SDS011;11401;50.792;4.352;2023-04-15T00:28:12;3.92;;;2.53;;
22468;SDS011;11401;50.792;4.352;2023-04-15T00:30:39;3.90;;;2.70;;
22468;SDS011;11401;50.792;4.352;2023-04-15T00:33:07;3.78;;;2.60;;
22468;SDS011;11401;50.792;4.352;2023-04-15T00:35:35;2.63;;;2.30;;
22468;SDS011;11401;50.792;4.352;2023-04-15T00:38:03;3.95;;;2.75;;
22468;SDS011;11401;50.792;4.352;2023-04-15T00:40:32;5.43;;;3.00;;
22468;SDS011;11401;50.792;4.352;2023-04-15T00:42:59;4.35;;;2.83;;
22468;SDS011;11401;50.792;4.352;2023-04-15T00:45:27;2.95;;;2.65;;
22468;SDS011;11401;50.792;4.352;2023-04-15T00:47:55;4.00;;;2.60;;
22468;SDS011;11401;50.792;4.352;2023-04-15T00:50:22;4.60;;;2.72;;
22468;SDS011;11401;50.792;4.352;2023-04-15T00:52:49;3.38;;;2.97;;
22468;SDS011;11401;50.792;4.352;2023-04-15T00:55:17;4.03;;;2.70;;
22468;SDS011;11401;50.792;4.352;2023-04-15T00:57:44;3.20;;;2.90;;
22468;SDS011;11401;50.792;4.352;2023-04-15T01:00:11;3.63;;;2.55;;
22468;SDS011;11401;50.792;4.352;2023-04-15T01:02:39;2.22;;;2.13;;
22468;SDS011;11401;50.792;4.352;2023-04-15T01:05:06;3.33;;;2.65;;
22468;SDS011;11401;50.792;4.352;2023-04-15T01:07:34;4.72;;;2.83;;
22468;SDS011;11401;50.792;4.352;2023-04-15T01:10:02;3.10;;;2.47;;
22468;SDS011;11401;50.792;4.352;2023-04-15T01:12:31;4.35;;;2.25;;
22468;SDS011;11401;50.792;4.352;2023-04-15T01:14:59;3.08;;;2.30;;
22468;SDS011;11401;50.792;4.352;2023-04-15T01:17:27;3.13;;;2.40;;
22468;SDS011;11401;50.792;4.352;2023-04-15T01:19:55;2.67;;;2.47;;
22468;SDS011;11401;50.792;4.352;2023-04-15T01:22:26;3.40;;;3.00;;
22468;SDS011;11401;50.792;4.352;2023-04-15T01:24:54;3.42;;;3.13;;
22468;SDS011;11401;50.792;4.352;2023-04-15T01:27:45;2.90;;;2.70;;
22468;SDS011;11401;50.792;4.352;2023-04-15T01:30:14;4.43;;;2.63;;
22468;SDS011;11401;50.792;4.352;2023-04-15T01:32:41;3.08;;;2.65;;
22468;SDS011;11401;50.792;4.352;2023-04-15T01:35:08;3.03;;;2.83;;
22468;SDS011;11401;50.792;4.352;2023-04-15T01:37:35;3.38;;;3.15;;
22468;SDS011;11401;50.792;4.352;2023-04-15T01:40:03;5.32;;;2.90;;
22468;SDS011;11401;50.792;4.352;2023-04-15T01:42:31;3.42;;;2.90;;
22468;SDS011;11401;50.792;4.352;2023-04-15T01:44:58;3.33;;;3.00;;
22468;SDS011;11401;50.792;4.352;2023-04-15T01:47:25;3.03;;;2.55;;
22468;SDS011;11401;50.792;4.352;2023-04-15T01:49:52;3.38;;;2.95;;
22468;SDS011;11401;50.792;4.352;2023-04-15T01:52:20;7.13;;;2.65;;
22468;SDS011;11401;50.792;4.352;2023-04-15T01:54:47;3.60;;;2.80;;
22468;SDS011;11401;50.792;4.352;2023-04-15T01:57:17;5.18;;;3.33;;
22468;SDS011;11401;50.792;4.352;2023-04-15T01:59:44;3.20;;;2.65;;
22468;SDS011;11401;50.792;4.352;2023-04-15T02:02:11;3.97;;;3.30;;
22468;SDS011;11401;50.792;4.352;2023-04-15T02:04:38;5.07;;;2.80;;
22468;SDS011;11401;50.792;4.352;2023-04-15T02:07:05;3.10;;;2.78;;
22468;SDS011;11401;50.792;4.352;2023-04-15T02:09:33;2.85;;;2.65;;
22468;SDS011;11401;50.792;4.352;2023-04-15T02:12:00;6.60;;;3.08;;
22468;SDS011;11401;50.792;4.352;2023-04-15T02:14:28;4.85;;;3.72;;
22468;SDS011;11401;50.792;4.352;2023-04-15T02:16:54;4.28;;;3.17;;
22468;SDS011;11401;50.792;4.352;2023-04-15T02:19:22;5.00;;;2.90;;
22468;SDS011;11401;50.792;4.352;2023-04-15T02:21:49;3.58;;;3.28;;
22468;SDS011;11401;50.792;4.352;2023-04-15T02:24:16;3.72;;;3.20;;
22468;SDS011;11401;50.792;4.352;2023-04-15T02:26:43;3.92;;;2.88;;
22468;SDS011;11401;50.792;4.352;2023-04-15T02:29:10;3.60;;;3.30;;
22468;SDS011;11401;50.792;4.352;2023-04-15T02:31:39;3.25;;;2.95;;
22468;SDS011;11401;50.792;4.352;2023-04-15T02:34:07;5.63;;;3.30;;
22468;SDS011;11401;50.792;4.352;2023-04-15T02:36:34;3.10;;;2.80;;
22468;SDS011;11401;50.792;4.352;2023-04-15T02:39:03;3.78;;;3.47;;
22468;SDS011;11401;50.792;4.352;2023-04-15T02:41:30;6.13;;;3.20;;
22468;SDS011;11401;50.792;4.352;2023-04-15T02:43:57;3.17;;;2.83;;
22468;SDS011;11401;50.792;4.352;2023-04-15T02:46:25;4.65;;;3.17;;
22468;SDS011;11401;50.792;4.352;2023-04-15T02:48:52;3.63;;;3.33;;
22468;SDS011;11401;50.792;4.352;2023-04-15T02:51:21;3.58;;;3.30;;
22468;SDS011;11401;50.792;4.352;2023-04-15T02:53:49;4.68;;;3.05;;
22468;SDS011;11401;50.792;4.352;2023-04-15T02:56:16;6.68;;;3.10;;
22468;SDS011;11401;50.792;4.352;2023-04-15T02:58:45;4.40;;;3.60;;
22468;SDS011;11401;50.792;4.352;2023-04-15T03:01:12;3.63;;;3.33;;
22468;SDS011;11401;50.792;4.352;2023-04-15T03:03:40;4.57;;;3.20;;
22468;SDS011;11401;50.792;4.352;2023-04-15T03:06:07;4.03;;;3.30;;
22468;SDS011;11401;50.792;4.352;2023-04-15T03:08:35;3.60;;;3.30;;
22468;SDS011;11401;50.792;4.352;2023-04-15T03:11:02;3.50;;;2.90;;
22468;SDS011;11401;50.792;4.352;2023-04-15T03:13:31;3.55;;;3.22;;
22468;SDS011;11401;50.792;4.352;2023-04-15T03:16:04;3.47;;;2.92;;
22468;SDS011;11401;50.792;4.352;2023-04-15T03:18:32;5.55;;;3.38;;
22468;SDS011;11401;50.792;4.352;2023-04-15T03:21:01;3.17;;;2.85;;
22468;SDS011;11401;50.792;4.352;2023-04-15T03:23:32;3.55;;;2.90;;
22468;SDS011;11401;50.792;4.352;2023-04-15T03:26:01;3.58;;;3.28;;
22468;SDS011;11401;50.792;4.352;2023-04-15T03:28:30;8.02;;;3.25;;
22468;SDS011;11401;50.792;4.352;2023-04-15T03:30:58;5.00;;;3.15;;
22468;SDS011;11401;50.792;4.352;2023-04-15T03:33:26;5.50;;;3.58;;
22468;SDS011;11401;50.792;4.352;2023-04-15T03:35:53;5.57;;;3.72;;
22468;SDS011;11401;50.792;4.352;2023-04-15T03:38:20;5.53;;;3.92;;
22468;SDS011;11401;50.792;4.352;2023-04-15T03:40:47;7.85;;;3.58;;
22468;SDS011;11401;50.792;4.352;2023-04-15T03:43:14;6.50;;;4.15;;
22468;SDS011;11401;50.792;4.352;2023-04-15T03:45:40;6.93;;;4.68;;
22468;SDS011;11401;50.792;4.352;2023-04-15T03:48:07;7.63;;;4.55;;
22468;SDS011;11401;50.792;4.352;2023-04-15T03:50:43;10.73;;;5.80;;
22468;SDS011;11401;50.792;4.352;2023-04-15T03:53:11;9.10;;;5.70;;
22468;SDS011;11401;50.792;4.352;2023-04-15T03:55:38;9.48;;;5.85;;
22468;SDS011;11401;50.792;4.352;2023-04-15T03:58:05;15.48;;;8.32;;
22468;SDS011;11401;50.792;4.352;2023-04-15T04:00:32;14.20;;;7.65;;
22468;SDS011;11401;50.792;4.352;2023-04-15T04:02:59;11.68;;;6.35;;
22468;SDS011;11401;50.792;4.352;2023-04-15T04:05:26;14.52;;;7.30;;
22468;SDS011;11401;50.792;4.352;2023-04-15T04:07:53;13.50;;;6.90;;
22468;SDS011;11401;50.792;4.352;2023-04-15T04:10:20;9.90;;;7.03;;
22468;SDS011;11401;50.792;4.352;2023-04-15T04:12:47;10.80;;;6.60;;
22468;SDS011;11401;50.792;4.352;2023-04-15T04:15:15;11.45;;;6.65;;
22468;SDS011;11401;50.792;4.352;2023-04-15T04:17:42;11.43;;;7.65;;
22468;SDS011;11401;50.792;4.352;2023-04-15T04:20:09;10.68;;;7.07;;
22468;SDS011;11401;50.792;4.352;2023-04-15T04:22:39;11.88;;;6.38;;
22468;SDS011;11401;50.792;4.352;2023-04-15T04:25:06;13.15;;;6.68;;
22468;SDS011;11401;50.792;4.352;2023-04-15T04:27:35;9.88;;;6.35;;
22468;SDS011;11401;50.792;4.352;2023-04-15T04:30:02;9.85;;;6.63;;
22468;SDS011;11401;50.792;4.352;2023-04-15T04:32:30;7.82;;;6.07;;
22468;SDS011;11401;50.792;4.352;2023-04-15T04:34:57;9.57;;;6.20;;
22468;SDS011;11401;50.792;4.352;2023-04-15T04:37:24;10.15;;;6.50;;
22468;SDS011;11401;50.792;4.352;2023-04-15T04:39:51;8.38;;;6.30;;
22468;SDS011;11401;50.792;4.352;2023-04-15T04:42:19;11.95;;;6.85;;
22468;SDS011;11401;50.792;4.352;2023-04-15T04:44:46;9.07;;;5.80;;
22468;SDS011;11401;50.792;4.352;2023-04-15T04:47:13;8.23;;;5.50;;
22468;SDS011;11401;50.792;4.352;2023-04-15T04:49:40;10.40;;;5.35;;
22468;SDS011;11401;50.792;4.352;2023-04-15T04:52:07;9.65;;;5.30;;
22468;SDS011;11401;50.792;4.352;2023-04-15T04:54:34;11.32;;;5.85;;
22468;SDS011;11401;50.792;4.352;2023-04-15T04:57:01;8.60;;;5.45;;
22468;SDS011;11401;50.792;4.352;2023-04-15T04:59:28;7.30;;;5.25;;
22468;SDS011;11401;50.792;4.352;2023-04-15T05:01:55;10.05;;;5.63;;
22468;SDS011;11401;50.792;4.352;2023-04-15T05:04:22;11.00;;;5.70;;
22468;SDS011;11401;50.792;4.352;2023-04-15T05:06:49;7.15;;;4.72;;
22468;SDS011;11401;50.792;4.352;2023-04-15T05:09:17;9.52;;;5.80;;
22468;SDS011;11401;50.792;4.352;2023-04-15T05:11:44;8.95;;;5.38;;
22468;SDS011;11401;50.792;4.352;2023-04-15T05:14:11;8.30;;;6.32;;
22468;SDS011;11401;50.792;4.352;2023-04-15T05:16:38;11.43;;;5.95;;
22468;SDS011;11401;50.792;4.352;2023-04-15T05:19:05;9.00;;;6.25;;
22468;SDS011;11401;50.792;4.352;2023-04-15T05:21:33;7.05;;;5.63;;
22468;SDS011;11401;50.792;4.352;2023-04-15T05:24:00;10.68;;;5.63;;
22468;SDS011;11401;50.792;4.352;2023-04-15T05:26:27;7.75;;;5.38;;
22468;SDS011;11401;50.792;4.352;2023-04-15T05:28:54;7.25;;;5.35;;
22468;SDS011;11401;50.792;4.352;2023-04-15T05:31:21;8.65;;;5.47;;
22468;SDS011;11401;50.792;4.352;2023-04-15T05:33:48;7.40;;;5.25;;
22468;SDS011;11401;50.792;4.352;2023-04-15T05:36:15;11.20;;;5.78;;
22468;SDS011;11401;50.792;4.352;2023-04-15T05:38:42;9.57;;;5.47;;
22468;SDS011;11401;50.792;4.352;2023-04-15T05:41:09;8.55;;;5.70;;
22468;SDS011;11401;50.792;4.352;2023-04-15T05:43:38;6.68;;;5.22;;
22468;SDS011;11401;50.792;4.352;2023-04-15T05:46:05;6.25;;;4.90;;
22468;SDS011;11401;50.792;4.352;2023-04-15T05:48:33;7.45;;;5.68;;
22468;SDS011;11401;50.792;4.352;2023-04-15T05:51:00;7.53;;;5.30;;
22468;SDS011;11401;50.792;4.352;2023-04-15T05:53:27;7.78;;;5.45;;
22468;SDS011;11401;50.792;4.352;2023-04-15T05:55:55;8.57;;;5.15;;
22468;SDS011;11401;50.792;4.352;2023-04-15T05:58:22;11.75;;;6.07;;
22468;SDS011;11401;50.792;4.352;2023-04-15T06:00:49;6.13;;;4.90;;
22468;SDS011;11401;50.792;4.352;2023-04-15T06:03:16;7.35;;;4.78;;
22468;SDS011;11401;50.792;4.352;2023-04-15T06:05:43;6.90;;;5.00;;
22468;SDS011;11401;50.792;4.352;2023-04-15T06:08:10;6.07;;;4.50;;
22468;SDS011;11401;50.792;4.352;2023-04-15T06:10:37;6.35;;;4.47;;
22468;SDS011;11401;50.792;4.352;2023-04-15T06:13:04;6.05;;;4.38;;
22468;SDS011;11401;50.792;4.352;2023-04-15T06:15:32;8.18;;;4.68;;
22468;SDS011;11401;50.792;4.352;2023-04-15T06:17:59;5.22;;;4.45;;
22468;SDS011;11401;50.792;4.352;2023-04-15T06:20:26;6.00;;;4.40;;
22468;SDS011;11401;50.792;4.352;2023-04-15T06:22:54;7.47;;;4.40;;
22468;SDS011;11401;50.792;4.352;2023-04-15T06:25:21;10.98;;;5.07;;
22468;SDS011;11401;50.792;4.352;2023-04-15T06:27:47;6.65;;;4.70;;
22468;SDS011;11401;50.792;4.352;2023-04-15T06:30:15;6.80;;;5.00;;
22468;SDS011;11401;50.792;4.352;2023-04-15T06:32:42;8.48;;;5.57;;
22468;SDS011;11401;50.792;4.352;2023-04-15T06:35:09;6.78;;;4.75;;
22468;SDS011;11401;50.792;4.352;2023-04-15T06:37:36;7.85;;;4.97;;
22468;SDS011;11401;50.792;4.352;2023-04-15T06:40:04;5.35;;;4.55;;
22468;SDS011;11401;50.792;4.352;2023-04-15T06:42:31;6.60;;;4.30;;
22468;SDS011;11401;50.792;4.352;2023-04-15T06:44:59;8.48;;;4.40;;
22468;SDS011;11401;50.792;4.352;2023-04-15T06:47:26;12.57;;;4.53;;
22468;SDS011;11401;50.792;4.352;2023-04-15T06:49:53;10.15;;;5.30;;
22468;SDS011;11401;50.792;4.352;2023-04-15T06:52:20;13.20;;;4.55;;
22468;SDS011;11401;50.792;4.352;2023-04-15T06:54:47;11.27;;;4.57;;
22468;SDS011;11401;50.792;4.352;2023-04-15T06:57:14;17.38;;;5.13;;
22468;SDS011;11401;50.792;4.352;2023-04-15T06:59:41;11.02;;;5.85;;
22468;SDS011;11401;50.792;4.352;2023-04-15T07:02:10;8.15;;;4.47;;
22468;SDS011;11401;50.792;4.352;2023-04-15T07:04:38;11.98;;;5.18;;
22468;SDS011;11401;50.792;4.352;2023-04-15T07:07:05;7.70;;;5.00;;
22468;SDS011;11401;50.792;4.352;2023-04-15T07:09:33;8.50;;;5.35;;
22468;SDS011;11401;50.792;4.352;2023-04-15T07:12:00;7.03;;;4.72;;
22468;SDS011;11401;50.792;4.352;2023-04-15T07:14:28;6.05;;;4.53;;
22468;SDS011;11401;50.792;4.352;2023-04-15T07:16:55;7.90;;;5.10;;
22468;SDS011;11401;50.792;4.352;2023-04-15T07:19:22;9.57;;;5.18;;
22468;SDS011;11401;50.792;4.352;2023-04-15T07:21:50;11.60;;;5.15;;
22468;SDS011;11401;50.792;4.352;2023-04-15T07:24:17;8.25;;;5.07;;
22468;SDS011;11401;50.792;4.352;2023-04-15T07:26:45;7.72;;;4.70;;
22468;SDS011;11401;50.792;4.352;2023-04-15T07:29:14;9.50;;;4.55;;
22468;SDS011;11401;50.792;4.352;2023-04-15T07:31:41;7.60;;;3.92;;
22468;SDS011;11401;50.792;4.352;2023-04-15T07:34:09;9.02;;;4.70;;
22468;SDS011;11401;50.792;4.352;2023-04-15T07:36:36;5.65;;;4.10;;
22468;SDS011;11401;50.792;4.352;2023-04-15T07:39:05;6.95;;;4.22;;
22468;SDS011;11401;50.792;4.352;2023-04-15T07:41:33;9.68;;;4.85;;
22468;SDS011;11401;50.792;4.352;2023-04-15T07:44:00;6.28;;;4.80;;
22468;SDS011;11401;50.792;4.352;2023-04-15T07:46:27;10.60;;;4.88;;
22468;SDS011;11401;50.792;4.352;2023-04-15T07:48:54;5.05;;;4.50;;
22468;SDS011;11401;50.792;4.352;2023-04-15T07:51:21;7.40;;;5.18;;
22468;SDS011;11401;50.792;4.352;2023-04-15T07:53:49;5.65;;;4.20;;
22468;SDS011;11401;50.792;4.352;2023-04-15T07:56:16;10.55;;;5.10;;
22468;SDS011;11401;50.792;4.352;2023-04-15T07:58:43;7.72;;;5.72;;
22468;SDS011;11401;50.792;4.352;2023-04-15T08:01:10;6.25;;;5.60;;
22468;SDS011;11401;50.792;4.352;2023-04-15T08:03:38;8.27;;;6.10;;
22468;SDS011;11401;50.792;4.352;2023-04-15T08:06:05;8.85;;;6.35;;
22468;SDS011;11401;50.792;4.352;2023-04-15T08:08:33;11.45;;;5.50;;
22468;SDS011;11401;50.792;4.352;2023-04-15T08:11:01;8.38;;;5.28;;
22468;SDS011;11401;50.792;4.352;2023-04-15T08:13:28;9.73;;;6.03;;
22468;SDS011;11401;50.792;4.352;2023-04-15T08:18:44;11.20;;;6.57;;
22468;SDS011;11401;50.792;4.352;2023-04-15T08:21:12;10.52;;;6.97;;
22468;SDS011;11401;50.792;4.352;2023-04-15T08:23:39;14.52;;;8.02;;
22468;SDS011;11401;50.792;4.352;2023-04-15T08:26:07;13.27;;;7.25;;
22468;SDS011;11401;50.792;4.352;2023-04-15T08:28:38;11.30;;;6.30;;
22468;SDS011;11401;50.792;4.352;2023-04-15T08:31:06;10.75;;;6.53;;
22468;SDS011;11401;50.792;4.352;2023-04-15T08:33:34;13.02;;;6.25;;
22468;SDS011;11401;50.792;4.352;2023-04-15T08:36:02;9.30;;;6.90;;
22468;SDS011;11401;50.792;4.352;2023-04-15T08:38:30;9.93;;;6.38;;
22468;SDS011;11401;50.792;4.352;2023-04-15T08:40:57;11.50;;;6.78;;
22468;SDS011;11401;50.792;4.352;2023-04-15T08:43:33;9.25;;;7.10;;
22468;SDS011;11401;50.792;4.352;2023-04-15T08:46:01;10.43;;;6.78;;
22468;SDS011;11401;50.792;4.352;2023-04-15T08:48:33;11.93;;;6.63;;
22468;SDS011;11401;50.792;4.352;2023-04-15T08:51:05;9.38;;;6.07;;
22468;SDS011;11401;50.792;4.352;2023-04-15T08:53:33;10.48;;;5.60;;
22468;SDS011;11401;50.792;4.352;2023-04-15T08:56:03;11.02;;;7.20;;
22468;SDS011;11401;50.792;4.352;2023-04-15T08:58:32;11.75;;;7.22;;
22468;SDS011;11401;50.792;4.352;2023-04-15T09:01:00;11.88;;;6.15;;
22468;SDS011;11401;50.792;4.352;2023-04-15T09:03:28;12.40;;;6.95;;
22468;SDS011;11401;50.792;4.352;2023-04-15T09:05:56;12.10;;;7.05;;
22468;SDS011;11401;50.792;4.352;2023-04-15T09:08:23;15.02;;;7.70;;
22468;SDS011;11401;50.792;4.352;2023-04-15T09:10:50;10.93;;;7.72;;
22468;SDS011;11401;50.792;4.352;2023-04-15T09:13:19;13.48;;;7.60;;
22468;SDS011;11401;50.792;4.352;2023-04-15T09:15:46;10.43;;;5.95;;
22468;SDS011;11401;50.792;4.352;2023-04-15T09:18:25;10.60;;;7.43;;
22468;SDS011;11401;50.792;4.352;2023-04-15T09:21:02;9.55;;;6.75;;
22468;SDS011;11401;50.792;4.352;2023-04-15T09:23:37;12.05;;;5.78;;
22468;SDS011;11401;50.792;4.352;2023-04-15T09:26:06;12.45;;;7.10;;
22468;SDS011;11401;50.792;4.352;2023-04-15T09:28:40;15.68;;;7.78;;
22468;SDS011;11401;50.792;4.352;2023-04-15T09:31:07;9.13;;;6.55;;
22468;SDS011;11401;50.792;4.352;2023-04-15T09:33:40;8.60;;;6.03;;
22468;SDS011;11401;50.792;4.352;2023-04-15T09:36:20;13.43;;;8.75;;
22468;SDS011;11401;50.792;4.352;2023-04-15T09:38:57;5.90;;;4.90;;
22468;SDS011;11401;50.792;4.352;2023-04-15T09:41:25;8.15;;;6.03;;
22468;SDS011;11401;50.792;4.352;2023-04-15T09:43:53;7.85;;;5.68;;
22468;SDS011;11401;50.792;4.352;2023-04-15T09:46:39;9.18;;;5.10;;
22468;SDS011;11401;50.792;4.352;2023-04-15T09:49:10;7.10;;;3.95;;
22468;SDS011;11401;50.792;4.352;2023-04-15T09:51:38;7.95;;;5.35;;
22468;SDS011;11401;50.792;4.352;2023-04-15T09:54:07;3.55;;;3.05;;
22468;SDS011;11401;50.792;4.352;2023-04-15T09:56:34;7.05;;;4.25;;
22468;SDS011;11401;50.792;4.352;2023-04-15T09:59:08;8.40;;;5.20;;
22468;SDS011;11401;50.792;4.352;2023-04-15T10:01:35;7.55;;;4.10;;
22468;SDS011;11401;50.792;4.352;2023-04-15T10:04:04;7.50;;;4.70;;
22468;SDS011;11401;50.792;4.352;2023-04-15T10:06:32;7.80;;;3.90;;
22468;SDS011;11401;50.792;4.352;2023-04-15T10:09:00;6.00;;;4.55;;
22468;SDS011;11401;50.792;4.352;2023-04-15T10:11:28;5.50;;;4.68;;
22468;SDS011;11401;50.792;4.352;2023-04-15T10:13:57;6.97;;;3.80;;
22468;SDS011;11401;50.792;4.352;2023-04-15T10:16:25;6.90;;;3.85;;
22468;SDS011;11401;50.792;4.352;2023-04-15T10:18:57;6.45;;;3.58;;
22468;SDS011;11401;50.792;4.352;2023-04-15T10:21:27;6.40;;;4.18;;
22468;SDS011;11401;50.792;4.352;2023-04-15T10:23:56;4.40;;;3.53;;
22468;SDS011;11401;50.792;4.352;2023-04-15T10:26:24;7.78;;;5.00;;
22468;SDS011;11401;50.792;4.352;2023-04-15T10:28:51;9.52;;;4.60;;
22468;SDS011;11401;50.792;4.352;2023-04-15T10:31:19;5.68;;;3.70;;
22468;SDS011;11401;50.792;4.352;2023-04-15T10:33:47;5.30;;;3.95;;
22468;SDS011;11401;50.792;4.352;2023-04-15T10:36:15;3.88;;;3.33;;
22468;SDS011;11401;50.792;4.352;2023-04-15T10:38:44;6.38;;;4.03;;
22468;SDS011;11401;50.792;4.352;2023-04-15T10:49:14;6.15;;;3.72;;
22468;SDS011;11401;50.792;4.352;2023-04-15T10:51:51;6.30;;;3.70;;
22468;SDS011;11401;50.792;4.352;2023-04-15T10:56:51;6.05;;;4.32;;
22468;SDS011;11401;50.792;4.352;2023-04-15T10:59:36;6.07;;;3.92;;
22468;SDS011;11401;50.792;4.352;2023-04-15T11:02:05;3.97;;;3.25;;
22468;SDS011;11401;50.792;4.352;2023-04-15T11:04:52;4.88;;;3.33;;
22468;SDS011;11401;50.792;4.352;2023-04-15T11:10:00;4.57;;;2.40;;
22468;SDS011;11401;50.792;4.352;2023-04-15T11:12:34;2.50;;;2.30;;
22468;SDS011;11401;50.792;4.352;2023-04-15T11:17:50;2.90;;;2.60;;
22468;SDS011;11401;50.792;4.352;2023-04-15T11:20:18;5.28;;;2.40;;
22468;SDS011;11401;50.792;4.352;2023-04-15T11:22:54;5.53;;;2.33;;
22468;SDS011;11401;50.792;4.352;2023-04-15T11:25:41;4.68;;;2.33;;
22468;SDS011;11401;50.792;4.352;2023-04-15T11:28:09;2.50;;;2.22;;
22468;SDS011;11401;50.792;4.352;2023-04-15T11:30:37;3.95;;;2.10;;
22468;SDS011;11401;50.792;4.352;2023-04-15T11:33:05;3.20;;;2.60;;
22468;SDS011;11401;50.792;4.352;2023-04-15T11:35:34;2.55;;;2.33;;
22468;SDS011;11401;50.792;4.352;2023-04-15T11:38:05;2.78;;;2.55;;
22468;SDS011;11401;50.792;4.352;2023-04-15T11:40:34;7.65;;;2.92;;
22468;SDS011;11401;50.792;4.352;2023-04-15T11:43:13;3.72;;;3.20;;
22468;SDS011;11401;50.792;4.352;2023-04-15T11:45:50;5.55;;;3.13;;
22468;SDS011;11401;50.792;4.352;2023-04-15T11:48:22;3.55;;;2.17;;
22468;SDS011;11401;50.792;4.352;2023-04-15T11:51:04;3.67;;;2.40;;
22468;SDS011;11401;50.792;4.352;2023-04-15T11:53:39;2.78;;;2.20;;
22468;SDS011;11401;50.792;4.352;2023-04-15T11:56:20;5.70;;;2.72;;
22468;SDS011;11401;50.792;4.352;2023-04-15T11:58:52;5.10;;;1.80;;
22468;SDS011;11401;50.792;4.352;2023-04-15T12:01:35;4.20;;;2.78;;
22468;SDS011;11401;50.792;4.352;2023-04-15T12:04:13;3.05;;;2.03;;
22468;SDS011;11401;50.792;4.352;2023-04-15T12:06:43;2.22;;;1.63;;
22468;SDS011;11401;50.792;4.352;2023-04-15T12:09:11;2.55;;;1.80;;
22468;SDS011;11401;50.792;4.352;2023-04-15T12:14:20;3.30;;;2.50;;
22468;SDS011;11401;50.792;4.352;2023-04-15T12:16:58;3.25;;;2.63;;
22468;SDS011;11401;50.792;4.352;2023-04-15T12:19:29;2.85;;;2.35;;
22468;SDS011;11401;50.792;4.352;2023-04-15T12:21:59;2.08;;;1.50;;
22468;SDS011;11401;50.792;4.352;2023-04-15T12:24:35;1.95;;;1.85;;
22468;SDS011;11401;50.792;4.352;2023-04-15T12:27:04;1.88;;;1.75;;
22468;SDS011;11401;50.792;4.352;2023-04-15T12:29:33;1.52;;;1.42;;
22468;SDS011;11401;50.792;4.352;2023-04-15T12:32:08;1.85;;;1.75;;
22468;SDS011;11401;50.792;4.352;2023-04-15T12:34:39;1.75;;;1.65;;
22468;SDS011;11401;50.792;4.352;2023-04-15T12:37:08;2.58;;;1.92;;
22468;SDS011;11401;50.792;4.352;2023-04-15T12:39:37;5.63;;;3.42;;
22468;SDS011;11401;50.792;4.352;2023-04-15T12:42:06;8.25;;;3.13;;
22468;SDS011;11401;50.792;4.352;2023-04-15T12:44:34;2.03;;;1.50;;
22468;SDS011;11401;50.792;4.352;2023-04-15T12:47:02;1.70;;;1.60;;
22468;SDS011;11401;50.792;4.352;2023-04-15T12:49:30;4.93;;;1.83;;
22468;SDS011;11401;50.792;4.352;2023-04-15T12:51:58;4.47;;;1.98;;
22468;SDS011;11401;50.792;4.352;2023-04-15T12:54:27;3.22;;;1.90;;
22468;SDS011;11401;50.792;4.352;2023-04-15T12:56:55;2.90;;;2.05;;
22468;SDS011;11401;50.792;4.352;2023-04-15T12:59:22;1.98;;;1.85;;
22468;SDS011;11401;50.792;4.352;2023-04-15T13:01:50;2.15;;;1.98;;
22468;SDS011;11401;50.792;4.352;2023-04-15T13:04:19;4.68;;;1.90;;
22468;SDS011;11401;50.792;4.352;2023-04-15T13:06:46;2.70;;;2.30;;
22468;SDS011;11401;50.792;4.352;2023-04-15T13:09:13;2.60;;;1.95;;
22468;SDS011;11401;50.792;4.352;2023-04-15T13:11:41;1.65;;;1.40;;
22468;SDS011;11401;50.792;4.352;2023-04-15T13:14:08;2.90;;;1.63;;
22468;SDS011;11401;50.792;4.352;2023-04-15T13:16:39;1.70;;;1.30;;
22468;SDS011;11401;50.792;4.352;2023-04-15T13:19:06;2.05;;;1.85;;
22468;SDS011;11401;50.792;4.352;2023-04-15T13:21:33;2.45;;;1.20;;
22468;SDS011;11401;50.792;4.352;2023-04-15T13:24:02;1.23;;;1.20;;
22468;SDS011;11401;50.792;4.352;2023-04-15T13:26:30;0.80;;;0.80;;
22468;SDS011;11401;50.792;4.352;2023-04-15T13:28:58;2.40;;;1.80;;
22468;SDS011;11401;50.792;4.352;2023-04-15T13:31:26;3.17;;;1.80;;
22468;SDS011;11401;50.792;4.352;2023-04-15T13:33:53;4.72;;;2.08;;
22468;SDS011;11401;50.792;4.352;2023-04-15T13:36:20;3.53;;;2.17;;
22468;SDS011;11401;50.792;4.352;2023-04-15T13:38:50;2.50;;;2.15;;
22468;SDS011;11401;50.792;4.352;2023-04-15T13:41:17;3.05;;;2.50;;
22468;SDS011;11401;50.792;4.352;2023-04-15T13:43:46;5.93;;;2.47;;
22468;SDS011;11401;50.792;4.352;2023-04-15T13:46:13;2.33;;;2.13;;
22468;SDS011;11401;50.792;4.352;2023-04-15T13:48:40;2.60;;;2.40;;
22468;SDS011;11401;50.792;4.352;2023-04-15T13:51:07;1.92;;;1.40;;
22468;SDS011;11401;50.792;4.352;2023-04-15T13:53:34;1.73;;;1.63;;
22468;SDS011;11401;50.792;4.352;2023-04-15T13:56:05;3.60;;;2.33;;
22468;SDS011;11401;50.792;4.352;2023-04-15T13:58:34;2.55;;;2.35;;
22468;SDS011;11401;50.792;4.352;2023-04-15T14:01:02;3.92;;;2.35;;
22468;SDS011;11401;50.792;4.352;2023-04-15T14:03:31;3.60;;;2.20;;
22468;SDS011;11401;50.792;4.352;2023-04-15T14:06:00;3.33;;;2.13;;
22468;SDS011;11401;50.792;4.352;2023-04-15T14:08:27;1.67;;;1.08;;
22468;SDS011;11401;50.792;4.352;2023-04-15T14:10:56;1.60;;;1.25;;
22468;SDS011;11401;50.792;4.352;2023-04-15T14:13:23;2.83;;;1.88;;
22468;SDS011;11401;50.792;4.352;2023-04-15T14:15:50;1.98;;;1.40;;
22468;SDS011;11401;50.792;4.352;2023-04-15T14:18:17;3.53;;;1.60;;
22468;SDS011;11401;50.792;4.352;2023-04-15T14:20:44;3.25;;;1.80;;
22468;SDS011;11401;50.792;4.352;2023-04-15T14:23:11;2.47;;;1.88;;
22468;SDS011;11401;50.792;4.352;2023-04-15T14:25:38;2.53;;;1.42;;
22468;SDS011;11401;50.792;4.352;2023-04-15T14:28:06;1.27;;;1.17;;
22468;SDS011;11401;50.792;4.352;2023-04-15T14:30:33;2.83;;;1.23;;
22468;SDS011;11401;50.792;4.352;2023-04-15T14:33:00;1.92;;;1.55;;
22468;SDS011;11401;50.792;4.352;2023-04-15T14:35:27;2.65;;;1.30;;
22468;SDS011;11401;50.792;4.352;2023-04-15T14:37:54;1.95;;;0.90;;
22468;SDS011;11401;50.792;4.352;2023-04-15T14:40:21;2.42;;;1.38;;
22468;SDS011;11401;50.792;4.352;2023-04-15T14:42:48;1.27;;;1.10;;
22468;SDS011;11401;50.792;4.352;2023-04-15T14:45:15;1.30;;;1.20;;
22468;SDS011;11401;50.792;4.352;2023-04-15T14:47:43;1.33;;;1.23;;
22468;SDS011;11401;50.792;4.352;2023-04-15T14:50:10;2.05;;;1.48;;
22468;SDS011;11401;50.792;4.352;2023-04-15T14:52:38;2.03;;;1.20;;
22468;SDS011;11401;50.792;4.352;2023-04-15T14:55:08;1.40;;;1.30;;
22468;SDS011;11401;50.792;4.352;2023-04-15T14:57:37;2.38;;;1.50;;
22468;SDS011;11401;50.792;4.352;2023-04-15T15:00:06;1.52;;;1.42;;
22468;SDS011;11401;50.792;4.352;2023-04-15T15:02:34;1.73;;;0.85;;
22468;SDS011;11401;50.792;4.352;2023-04-15T15:05:06;1.63;;;1.30;;
22468;SDS011;11401;50.792;4.352;2023-04-15T15:07:34;1.58;;;1.35;;
22468;SDS011;11401;50.792;4.352;2023-04-15T15:10:02;2.53;;;1.48;;
22468;SDS011;11401;50.792;4.352;2023-04-15T15:12:31;3.20;;;1.40;;
22468;SDS011;11401;50.792;4.352;2023-04-15T15:14:58;1.65;;;1.20;;